Terminal Aerodrome Forecast
Issued by NWS Grand Forks, ND

Home | Current Version | Previous Version | Text Only | Print | Product List | Glossary Off
Versions: 1 2 3 4 5 6 7 8 9 10 11 12 13 14 15 16 17 18 19 20

105
FTUS43 KFGF 231731
TAFFAR
TAF
KFAR 231731Z 2318/2418 35010KT P6SM OVC025
      TEMPO 2318/2321 BKN015
     FM240000 01008KT P6SM -SHRA OVC025
     FM240300 03010KT 6SM SHRA OVC015
     FM241300 01005KT P6SM VCSH OVC010=

USA.gov is the U.S. government's official web portal to all federal, state and local government web resources and services.